Three Bridges, New Jersey
Current Conditions -  °F | °C
As of 7:53 AM on Wednesday 22 Oct 2014 (Local Time) from KSMQ Reporting Station
Light Rain Light Rain  
Wind Chill: 54°   Ceiling: 7500
Heat Index: 54°   Visibility: 6mi
Dew Point: 51°   Wind: 12mph
Humidity: 90%   Direction: 30°NNE
Pressure: 29.9"   Gusts: NA
Location:  40.52°N, 74.8°W
Report Text: KSMQ 221153Z AUTO 03010KT 6SM -RA BR FEW014 SCT060 OVC075 12/11 A2990 RMK AO2 SLP125 P0008 60008 70032 T01220106 10139 20111 53014
Loading
Personal Weather Stations






























Interactive Weather Map
Tropical Storm Tracking
New forecast layout! Learn more

10-Day Weather Forecast

Advertisements
Track Severe Weather on mobile